Time;durP1;ratioP1;P1;durP2;ratioP2;P2;SDS_P1;SDS_P2;PMS_P1;PMS_P2;Temp;Humidity;BMP_temperature;BMP_pressure;BME280_temperature;BME280_humidity;BME280_pressure;Samples;Min_cycle;Max_cycle;Signal;HPM_P1;HPM_P2
2022/08/26 00:06:38;;;;;;;4.38;3.13;;;25.50;58.10;;;;;;20554749;28;20073;-77
2022/08/26 00:16:38;;;;;;;3.47;2.90;;;25.50;58.10;;;;;;20545917;28;20035;-77
2022/08/26 00:26:39;;;;;;;3.47;2.80;;;25.50;58.10;;;;;;20573624;28;20118;-76
2022/08/26 00:36:40;;;;;;;5.15;2.95;;;25.50;58.20;;;;;;20551324;28;20370;-79
2022/08/26 00:46:42;;;;;;;5.90;3.30;;;25.50;58.30;;;;;;20544612;28;20493;-77
2022/08/26 00:56:53;;;;;;;3.95;3.55;;;25.40;58.20;;;;;;20563900;28;20085;-76
2022/08/26 01:06:53;;;;;;;4.68;3.33;;;25.40;58.30;;;;;;20553255;28;20035;-75
2022/08/26 01:16:54;;;;;;;3.95;2.83;;;25.40;58.40;;;;;;20561122;28;20085;-77
2022/08/26 01:27:02;;;;;;;4.50;3.72;;;25.40;58.40;;;;;;20873873;23;20051;-77
2022/08/26 01:37:14;;;;;;;3.30;2.90;;;25.40;58.50;;;;;;20543288;28;20046;-77
2022/08/26 01:47:15;;;;;;;4.35;3.17;;;25.40;58.50;;;;;;20548995;28;20052;-76
2022/08/26 01:57:15;;;;;;;4.40;3.85;;;25.40;58.60;;;;;;20556415;28;20035;-76
2022/08/26 02:07:16;;;;;;;5.30;3.25;;;25.30;58.60;;;;;;20554712;28;20050;-76
2022/08/26 02:17:23;;;;;;;4.23;3.53;;;25.30;58.60;;;;;;20535492;28;20146;-77
2022/08/26 02:27:29;;;;;;;5.70;3.40;;;25.30;58.70;;;;;;20524087;28;20511;-76
2022/08/26 02:37:30;;;;;;;5.95;3.85;;;25.30;58.70;;;;;;20526425;28;20089;-76
2022/08/26 02:47:31;;;;;;;4.45;3.20;;;25.30;58.70;;;;;;20558936;28;20118;-77
2022/08/26 02:57:32;;;;;;;4.90;3.40;;;25.30;58.80;;;;;;20497920;28;20035;-77
2022/08/26 03:07:32;;;;;;;5.53;3.50;;;25.20;58.80;;;;;;20536988;28;20125;-76
2022/08/26 03:17:33;;;;;;;4.10;3.63;;;25.20;58.80;;;;;;20575518;28;20122;-76
2022/08/26 03:27:33;;;;;;;3.88;3.47;;;25.20;58.80;;;;;;20539795;28;20027;-78
2022/08/26 03:37:34;;;;;;;4.00;3.10;;;25.20;58.90;;;;;;20580177;28;20035;-76
2022/08/26 03:47:34;;;;;;;5.95;3.80;;;25.20;58.90;;;;;;20541075;28;20030;-76
2022/08/26 03:57:35;;;;;;;4.07;3.53;;;25.20;58.90;;;;;;20554502;28;20034;-77
2022/08/26 04:07:36;;;;;;;5.22;3.90;;;25.20;58.90;;;;;;20536970;28;20764;-77
2022/08/26 04:17:36;;;;;;;4.10;3.45;;;25.20;59.00;;;;;;20539756;28;20121;-77
2022/08/26 04:27:37;;;;;;;4.82;3.33;;;25.20;59.00;;;;;;20547600;28;20125;-82
2022/08/26 04:37:38;;;;;;;4.25;3.13;;;25.20;59.00;;;;;;20536249;28;20456;-76
2022/08/26 04:47:39;;;;;;;4.03;3.63;;;25.10;59.00;;;;;;20551564;28;20400;-82
2022/08/26 04:57:39;;;;;;;5.88;3.53;;;25.10;59.00;;;;;;20539133;28;20023;-73
2022/08/26 05:07:40;;;;;;;5.70;4.00;;;25.10;59.10;;;;;;20528820;28;20622;-79
2022/08/26 05:17:41;;;;;;;5.87;4.20;;;25.10;59.20;;;;;;20525550;28;20290;-80
2022/08/26 05:27:41;;;;;;;5.95;4.10;;;25.10;59.20;;;;;;20534476;28;20046;-78
2022/08/26 05:37:42;;;;;;;6.22;4.38;;;25.10;59.20;;;;;;20565856;28;20139;-87
2022/08/26 05:47:43;;;;;;;5.70;3.83;;;25.10;59.30;;;;;;20526864;28;20038;-89
2022/08/26 05:57:44;;;;;;;6.63;4.43;;;25.10;59.30;;;;;;20542322;28;20374;-91
2022/08/26 06:18:05;;;;;;;9.15;4.35;;;25.10;59.30;;;;;;20558673;28;20062;-90
2022/08/26 06:28:06;;;;;;;5.72;4.35;;;25.10;60.00;;;;;;20532601;28;20175;-90
2022/08/26 06:38:07;;;;;;;5.97;3.92;;;25.10;59.40;;;;;;20555223;28;20515;-90
2022/08/26 06:48:07;;;;;;;7.07;4.22;;;25.10;59.40;;;;;;20535903;28;20094;-78
2022/08/26 06:58:08;;;;;;;8.68;4.40;;;25.10;59.50;;;;;;20563872;28;20114;-82
2022/08/26 07:08:08;;;;;;;6.57;4.55;;;25.10;59.70;;;;;;20511188;28;20043;-80
2022/08/26 07:18:09;;;;;;;4.88;4.32;;;25.10;59.80;;;;;;20531517;28;20023;-73
2022/08/26 07:28:10;;;;;;;4.85;3.45;;;25.10;60.00;;;;;;20556270;28;20134;-78
2022/08/26 07:38:13;;;;;;;6.10;4.32;;;25.10;60.00;;;;;;20529300;28;20030;-79
2022/08/26 07:48:14;;;;;;;5.70;4.07;;;25.20;60.20;;;;;;20574708;28;20057;-76
2022/08/26 07:58:15;;;;;;;7.88;4.75;;;25.20;60.30;;;;;;20544622;28;20051;-78
2022/08/26 08:08:16;;;;;;;6.53;5.13;;;25.20;60.40;;;;;;20537069;28;20473;-78
2022/08/26 08:18:17;;;;;;;8.27;4.72;;;25.20;61.00;;;;;;20544444;28;20117;-79
2022/08/26 08:28:18;;;;;;;7.18;4.30;;;25.20;60.60;;;;;;20560452;28;20046;-80
2022/08/26 08:38:20;;;;;;;6.40;3.90;;;25.30;60.80;;;;;;20562656;28;20034;-76
2022/08/26 08:48:21;;;;;;;9.30;3.88;;;25.30;60.80;;;;;;20524282;28;20039;-79
2022/08/26 08:58:27;;;;;;;5.78;4.57;;;25.30;60.80;;;;;;20552919;28;20030;-82
2022/08/26 09:08:30;;;;;;;6.45;4.70;;;25.30;61.00;;;;;;20560764;28;20035;-77
2022/08/26 09:18:50;;;;;;;9.23;5.25;;;25.30;61.00;;;;;;20518773;28;20030;-81
2022/08/26 09:29:01;;;;;;;9.25;4.75;;;25.30;61.10;;;;;;20528075;28;20055;-77
2022/08/26 09:39:02;;;;;;;4.68;3.80;;;25.40;61.10;;;;;;20537102;28;20107;-81
2022/08/26 09:49:23;;;;;;;5.70;4.55;;;25.30;61.10;;;;;;20528246;28;20532;-83
2022/08/26 09:59:30;;;;;;;7.38;4.15;;;25.40;60.90;;;;;;20531408;28;20034;-79
2022/08/26 10:09:38;;;;;;;6.97;4.13;;;25.30;60.70;;;;;;20551548;28;20165;-78
2022/08/26 10:19:51;;;;;;;8.25;4.65;;;25.40;60.50;;;;;;20530397;28;20038;-86
2022/08/26 10:29:55;;;;;;;8.27;4.93;;;25.40;60.50;;;;;;20536120;28;20026;-91
2022/08/26 10:39:59;;;;;;;6.10;4.70;;;25.40;60.40;;;;;;20540567;28;20129;-77
2022/08/26 10:50:00;;;;;;;5.40;4.37;;;25.40;60.50;;;;;;20562928;28;20971;-78
2022/08/26 11:10:52;;;;;;;9.98;4.90;;;25.50;60.80;;;;;;20540553;28;20031;-83
2022/08/26 11:20:53;;;;;;;7.18;5.15;;;25.50;60.90;;;;;;20565218;28;20054;-78
2022/08/26 11:30:54;;;;;;;7.88;4.25;;;25.50;60.90;;;;;;20585816;28;20513;-86
2022/08/26 11:41:07;;;;;;;8.23;4.35;;;25.50;60.90;;;;;;20549143;28;20038;-76
2022/08/26 11:51:23;;;;;;;7.97;4.85;;;25.50;61.00;;;;;;20564615;28;20418;-82
2022/08/26 12:01:35;;;;;;;13.63;5.03;;;25.50;60.90;;;;;;20553696;28;20038;-78
2022/08/26 12:11:37;;;;;;;10.82;5.30;;;25.60;61.00;;;;;;20519369;28;20089;-79
2022/08/26 12:21:38;;;;;;;9.18;4.93;;;25.60;61.00;;;;;;20507920;28;20343;-78
2022/08/26 12:31:42;;;;;;;6.43;4.15;;;25.60;61.00;;;;;;20507137;28;20042;-78
2022/08/26 12:41:48;;;;;;;7.45;4.68;;;25.60;61.00;;;;;;20537169;28;20077;-78
2022/08/26 12:51:49;;;;;;;7.50;4.13;;;25.60;61.00;;;;;;20536044;28;20069;-80
2022/08/26 13:01:50;;;;;;;8.07;4.28;;;25.60;61.00;;;;;;20529479;28;20039;-79
2022/08/26 13:11:53;;;;;;;6.32;4.00;;;25.60;61.00;;;;;;20501607;28;20026;-79
2022/08/26 13:22:00;;;;;;;8.30;3.97;;;25.60;61.00;;;;;;20542896;28;20035;-76
2022/08/26 13:32:01;;;;;;;6.82;4.10;;;25.60;61.00;;;;;;20543894;28;20042;-78
2022/08/26 13:42:01;;;;;;;13.77;3.73;;;25.60;61.00;;;;;;20524207;28;20061;-78
2022/08/26 13:52:02;;;;;;;9.82;3.80;;;25.60;61.00;;;;;;20542460;28;20294;-76
2022/08/26 14:02:03;;;;;;;8.65;4.07;;;25.60;61.00;;;;;;20531759;28;20137;-76
2022/08/26 14:12:03;;;;;;;6.90;5.00;;;25.60;61.20;;;;;;20533110;28;20058;-77
2022/08/26 14:22:04;;;;;;;7.40;4.33;;;25.60;61.50;;;;;;20528422;28;20539;-76
2022/08/26 14:32:22;;;;;;;9.70;4.68;;;25.50;61.60;;;;;;20526632;28;20289;-78
2022/08/26 14:42:26;;;;;;;6.13;3.70;;;25.50;61.70;;;;;;20512873;28;20055;-77
2022/08/26 14:52:27;;;;;;;6.27;4.10;;;25.50;61.60;;;;;;20532708;28;20124;-74
2022/08/26 15:02:27;;;;;;;4.45;3.22;;;25.50;61.70;;;;;;20513423;28;20126;-74
2022/08/26 15:12:30;;;;;;;6.40;4.10;;;25.60;61.90;;;;;;20500999;28;20027;-74
2022/08/26 15:22:31;;;;;;;5.10;3.28;;;25.60;61.90;;;;;;20537901;28;20039;-78
2022/08/26 15:32:32;;;;;;;6.40;2.92;;;25.60;61.80;;;;;;20533117;28;20190;-77
2022/08/26 15:42:33;;;;;;;7.32;3.17;;;25.60;61.70;;;;;;20574427;28;20051;-85
2022/08/26 15:52:34;;;;;;;6.07;3.97;;;25.50;61.80;;;;;;20550068;28;20037;-79
2022/08/26 16:02:34;;;;;;;3.72;3.08;;;25.60;62.20;;;;;;20542323;28;20489;-87
2022/08/26 16:12:35;;;;;;;7.45;2.95;;;25.60;62.40;;;;;;20544378;28;20031;-86
2022/08/26 16:22:36;;;;;;;4.25;2.65;;;25.50;62.20;;;;;;20579063;28;20046;-80
2022/08/26 16:32:37;;;;;;;6.05;2.85;;;25.60;62.20;;;;;;20549247;28;20390;-86
2022/08/26 16:42:39;;;;;;;7.60;3.00;;;25.60;62.20;;;;;;20462756;29;20043;-84
2022/08/26 16:52:40;;;;;;;4.82;3.15;;;25.60;62.20;;;;;;20493903;29;20637;-81
2022/08/26 17:02:41;;;;;;;2.83;1.77;;;25.60;62.30;;;;;;20526062;28;20046;-81
2022/08/26 17:12:41;;;;;;;4.45;2.80;;;25.60;62.40;;;;;;20566052;28;20645;-86
2022/08/26 17:22:44;;;;;;;3.33;2.00;;;25.60;62.40;;;;;;20565539;28;20039;-81
2022/08/26 17:32:45;;;;;;;4.32;2.47;;;25.50;62.40;;;;;;20539411;28;20047;-81
2022/08/26 17:42:46;;;;;;;3.90;1.95;;;25.50;62.60;;;;;;20546144;28;20074;-80
2022/08/26 17:52:47;;;;;;;5.25;2.97;;;25.50;62.80;;;;;;20563831;28;20041;-82
2022/08/26 18:02:48;;;;;;;4.68;1.65;;;25.50;62.90;;;;;;20531858;28;20043;-82
2022/08/26 18:12:49;;;;;;;3.47;2.33;;;25.40;63.00;;;;;;20526467;28;20086;-80
2022/08/26 18:22:50;;;;;;;4.87;2.63;;;25.50;63.10;;;;;;20545912;28;20079;-80
2022/08/26 18:32:50;;;;;;;4.93;2.33;;;25.50;63.20;;;;;;20553876;28;20313;-79
2022/08/26 18:42:51;;;;;;;3.70;2.00;;;25.40;63.10;;;;;;20560585;28;20129;-81
2022/08/26 18:52:51;;;;;;;3.92;2.35;;;25.50;63.20;;;;;;20547350;28;20333;-80
2022/08/26 19:02:52;;;;;;;4.10;2.27;;;25.40;63.10;;;;;;20558898;28;20549;-80
2022/08/26 19:12:53;;;;;;;3.92;2.58;;;25.40;63.00;;;;;;20554770;28;20121;-78
2022/08/26 19:22:53;;;;;;;3.22;2.15;;;25.40;63.00;;;;;;20554826;28;20069;-78
2022/08/26 19:32:54;;;;;;;3.70;1.70;;;25.40;63.10;;;;;;20556746;28;20121;-78
2022/08/26 19:42:55;;;;;;;3.50;2.38;;;25.40;63.10;;;;;;20556031;28;20129;-77
2022/08/26 19:52:55;;;;;;;2.03;1.67;;;25.40;63.10;;;;;;20540696;28;20035;-78
2022/08/26 20:02:56;;;;;;;2.43;2.00;;;25.40;63.10;;;;;;20570730;28;20034;-78
2022/08/26 20:12:57;;;;;;;4.95;2.15;;;25.30;63.00;;;;;;20554250;28;20077;-78
2022/08/26 20:22:57;;;;;;;2.78;1.95;;;25.30;63.00;;;;;;20553550;28;20129;-77
2022/08/26 20:32:58;;;;;;;2.95;1.90;;;25.30;63.00;;;;;;20553305;28;20081;-78
2022/08/26 20:42:59;;;;;;;4.55;1.92;;;25.30;62.90;;;;;;20567969;28;20046;-77
2022/08/26 20:52:59;;;;;;;3.22;2.03;;;25.30;62.90;;;;;;20567663;28;20114;-78
2022/08/26 21:03:00;;;;;;;3.15;1.92;;;25.30;62.90;;;;;;20551507;28;20135;-78
2022/08/26 21:13:00;;;;;;;2.67;1.73;;;25.30;62.80;;;;;;20549901;28;20043;-78
2022/08/26 21:23:01;;;;;;;4.03;1.90;;;25.30;62.70;;;;;;20565622;28;20035;-77
2022/08/26 21:33:02;;;;;;;2.90;1.67;;;25.30;62.60;;;;;;20549003;28;20393;-78
2022/08/26 21:43:03;;;;;;;2.63;1.60;;;25.30;62.60;;;;;;20580136;28;20043;-78
2022/08/26 21:53:04;;;;;;;3.35;1.65;;;25.20;62.50;;;;;;20546980;28;20400;-78
2022/08/26 22:03:04;;;;;;;2.13;1.63;;;25.30;62.50;;;;;;20580207;28;20042;-78
2022/08/26 22:13:05;;;;;;;3.25;1.63;;;25.20;62.50;;;;;;20562772;28;20027;-78
2022/08/26 22:23:06;;;;;;;3.13;1.60;;;25.20;62.20;;;;;;20582906;28;20156;-77
2022/08/26 22:33:06;;;;;;;2.70;1.80;;;25.20;62.10;;;;;;20588188;28;20029;-77
2022/08/26 22:43:07;;;;;;;3.00;1.60;;;25.20;62.10;;;;;;20587980;28;20302;-77
2022/08/26 22:53:07;;;;;;;2.28;1.42;;;25.20;62.10;;;;;;20571622;28;20027;-77
2022/08/26 23:03:08;;;;;;;3.55;1.70;;;25.20;62.10;;;;;;20587141;28;20038;-77
2022/08/26 23:13:09;;;;;;;2.30;1.67;;;25.20;62.00;;;;;;20554618;28;20042;-78
2022/08/26 23:23:09;;;;;;;2.10;1.60;;;25.20;62.00;;;;;;20571074;28;20321;-77
2022/08/26 23:33:10;;;;;;;3.97;1.98;;;25.10;61.90;;;;;;20552996;28;20389;-77
2022/08/26 23:43:10;;;;;;;3.72;1.45;;;25.10;62.00;;;;;;20557409;28;20149;-78
2022/08/26 23:53:18;;;;;;;2.72;1.98;;;25.10;62.00;;;;;;20556253;28;20046;-78
